createdAt,value
2018-04-23T00:00:54.979Z,3.90
2018-04-23T00:03:23.248Z,4.60
2018-04-23T00:05:51.494Z,4.00
2018-04-23T00:08:18.995Z,4.53
2018-04-23T00:10:46.513Z,4.03
2018-04-23T00:13:14.735Z,3.47
2018-04-23T00:15:42.236Z,3.70
2018-04-23T00:18:09.732Z,3.97
2018-04-23T00:20:37.245Z,4.17
2018-04-23T00:23:04.774Z,3.90
2018-04-23T00:25:33.041Z,3.90
2018-04-23T00:28:01.314Z,4.37
2018-04-23T00:30:29.553Z,3.50
2018-04-23T00:32:57.039Z,4.10
2018-04-23T00:35:25.321Z,3.83
2018-04-23T00:37:52.819Z,4.00
2018-04-23T00:40:20.343Z,3.70
2018-04-23T00:42:47.842Z,4.20
2018-04-23T00:45:15.336Z,3.80
2018-04-23T00:47:42.846Z,3.67
2018-04-23T00:50:10.335Z,4.50
2018-04-23T00:52:37.842Z,3.63
2018-04-23T00:55:06.090Z,4.23
2018-04-23T00:57:33.585Z,4.10
2018-04-23T01:00:01.095Z,4.10
2018-04-23T01:02:28.582Z,4.37
2018-04-23T01:04:56.876Z,4.13
2018-04-23T01:07:25.146Z,3.70
2018-04-23T01:09:53.617Z,4.10
2018-04-23T01:12:21.905Z,3.40
2018-04-23T01:14:49.386Z,4.10
2018-04-23T01:17:16.895Z,4.00
2018-04-23T01:19:44.390Z,4.00
2018-04-23T01:22:12.689Z,3.90
2018-04-23T01:24:40.196Z,3.70
2018-04-23T01:27:07.686Z,3.90
2018-04-23T01:29:35.984Z,3.57
2018-04-23T01:32:03.494Z,3.90
2018-04-23T01:34:30.981Z,3.97
2018-04-23T01:36:59.298Z,3.97
2018-04-23T01:39:26.794Z,4.40
2018-04-23T01:41:54.306Z,3.53
2018-04-23T01:44:21.786Z,4.37
2018-04-23T01:46:49.281Z,4.20
2018-04-23T01:49:16.790Z,4.30
2018-04-23T01:51:44.295Z,3.90
2018-04-23T01:54:11.821Z,3.97
2018-04-23T01:56:39.318Z,4.07
2018-04-23T01:59:06.801Z,4.03
2018-04-23T02:01:34.317Z,3.50
2018-04-23T02:04:01.815Z,3.93
2018-04-23T02:06:29.330Z,4.23
2018-04-23T02:08:56.839Z,4.80
2018-04-23T02:11:24.333Z,4.07
2018-04-23T02:13:51.847Z,3.37
2018-04-23T02:16:20.106Z,4.20
2018-04-23T02:18:47.618Z,3.60
2018-04-23T02:21:15.107Z,4.10
2018-04-23T02:23:42.595Z,3.83
2018-04-23T02:26:10.865Z,4.23
2018-04-23T02:28:39.126Z,3.17
2018-04-23T02:31:06.633Z,4.47
2018-04-23T02:33:34.142Z,3.90
2018-04-23T02:36:01.653Z,3.60
2018-04-23T02:38:29.178Z,3.33
2018-04-23T02:40:57.459Z,4.43
2018-04-23T02:43:25.800Z,4.43
2018-04-23T02:45:53.305Z,4.23
2018-04-23T02:48:21.562Z,4.20
2018-04-23T02:50:49.080Z,4.23
2018-04-23T02:53:16.570Z,5.00
2018-04-23T02:55:44.082Z,4.57
2018-04-23T02:58:11.585Z,4.63
2018-04-23T03:00:39.077Z,4.00
2018-04-23T03:03:07.351Z,4.83
2018-04-23T03:05:35.628Z,4.40
2018-04-23T03:08:03.906Z,4.43
2018-04-23T03:10:32.184Z,4.00
2018-04-23T03:13:00.474Z,5.03
2018-04-23T03:15:27.992Z,4.60
2018-04-23T03:17:55.490Z,4.43
2018-04-23T03:20:23.011Z,4.43
2018-04-23T03:22:50.513Z,4.57
2018-04-23T03:25:18.006Z,4.00
2018-04-23T03:27:45.525Z,4.47
2018-04-23T03:30:13.026Z,4.80
2018-04-23T03:32:40.549Z,4.83
2018-04-23T03:35:08.046Z,4.70
2018-04-23T03:37:35.537Z,4.30
2018-04-23T03:40:03.074Z,4.13
2018-04-23T03:42:30.573Z,3.67
2018-04-23T03:44:58.858Z,3.93
2018-04-23T03:47:27.110Z,4.43
2018-04-23T03:49:54.601Z,3.73
2018-04-23T03:52:22.109Z,4.20
2018-04-23T03:54:49.601Z,4.27
2018-04-23T03:57:17.895Z,3.90
2018-04-23T03:59:45.385Z,4.50
2018-04-23T04:02:12.878Z,4.57
2018-04-23T04:04:40.623Z,5.27
2018-04-23T04:07:08.107Z,3.90
2018-04-23T04:09:35.622Z,4.40
2018-04-23T04:12:15.127Z,4.90
2018-04-23T04:14:55.254Z,4.20
2018-04-23T04:17:38.403Z,4.40
2018-04-23T04:20:06.669Z,5.23
2018-04-23T04:22:34.991Z,4.07
2018-04-23T04:25:02.486Z,4.37
2018-04-23T04:27:31.638Z,4.00
2018-04-23T04:29:59.143Z,4.30
2018-04-23T04:32:26.730Z,5.43
2018-04-23T04:34:55.007Z,3.70
2018-04-23T04:37:26.196Z,4.37
2018-04-23T04:39:57.527Z,5.00
2018-04-23T04:42:25.042Z,4.53
2018-04-23T04:44:53.417Z,4.20
2018-04-23T04:47:21.829Z,4.20
2018-04-23T04:49:50.215Z,4.70
2018-04-23T04:52:18.478Z,4.27
2018-04-23T04:54:45.975Z,4.53
2018-04-23T04:57:13.481Z,4.10
2018-04-23T04:59:40.986Z,3.80
2018-04-23T05:02:08.508Z,4.70
2018-04-23T05:04:36.015Z,4.63
2018-04-23T05:07:03.517Z,4.77
2018-04-23T05:09:31.039Z,3.70
2018-04-23T05:11:58.546Z,4.73
2018-04-23T05:14:26.286Z,4.37
2018-04-23T05:16:53.773Z,4.50
2018-04-23T05:19:21.323Z,4.23
2018-04-23T05:21:48.833Z,4.70
2018-04-23T05:24:16.316Z,4.27
2018-04-23T05:26:43.847Z,4.30
2018-04-23T05:29:11.333Z,4.43
2018-04-23T05:31:38.848Z,4.43
2018-04-23T05:34:06.380Z,4.90
2018-04-23T05:36:33.863Z,4.10
2018-04-23T05:39:02.147Z,4.17
2018-04-23T05:41:30.399Z,4.70
2018-04-23T05:43:57.953Z,4.20
2018-04-23T05:46:25.427Z,4.63
2018-04-23T05:48:53.695Z,4.80
2018-04-23T05:51:22.005Z,4.40
2018-04-23T05:53:49.510Z,4.40
2018-04-23T05:56:17.001Z,4.90
2018-04-23T05:58:45.278Z,4.47
2018-04-23T06:01:12.774Z,4.57
2018-04-23T06:03:40.277Z,4.73
2018-04-23T06:06:07.765Z,4.50
2018-04-23T06:08:35.254Z,4.60
2018-04-23T06:11:02.770Z,5.33
2018-04-23T06:13:30.263Z,4.60
2018-04-23T06:15:57.782Z,4.87
2018-04-23T06:18:25.274Z,4.73
2018-04-23T06:20:52.763Z,5.73
2018-04-23T06:23:20.279Z,5.20
2018-04-23T06:25:47.774Z,4.80
2018-04-23T06:28:15.301Z,4.93
2018-04-23T06:30:43.554Z,5.37
2018-04-23T06:33:11.062Z,4.80
2018-04-23T06:35:38.557Z,5.80
2018-04-23T06:38:06.270Z,5.47
2018-04-23T06:40:33.882Z,5.73
2018-04-23T06:43:01.616Z,6.10
2018-04-23T06:45:29.134Z,5.10
2018-04-23T06:47:57.389Z,5.03
2018-04-23T06:50:24.951Z,4.70
2018-04-23T06:52:52.442Z,5.13
2018-04-23T06:55:20.701Z,6.40
2018-04-23T06:57:48.214Z,5.97
2018-04-23T07:00:15.710Z,5.63
2018-04-23T07:02:43.221Z,5.20
2018-04-23T07:05:10.767Z,4.37
2018-04-23T07:07:38.537Z,5.03
2018-04-23T07:10:06.062Z,4.63
2018-04-23T07:12:33.560Z,4.73
2018-04-23T07:15:01.080Z,5.13
2018-04-23T07:17:28.578Z,4.90
2018-04-23T07:19:56.134Z,4.60
2018-04-23T07:22:23.623Z,4.80
2018-04-23T07:24:51.141Z,5.60
2018-04-23T07:27:19.401Z,5.50
2018-04-23T07:29:46.926Z,5.80
2018-04-23T07:32:14.418Z,4.53
2018-04-23T07:34:41.918Z,5.40
2018-04-23T07:37:09.426Z,5.77
2018-04-23T07:39:36.934Z,5.47
2018-04-23T07:42:04.442Z,4.63
2018-04-23T07:44:31.955Z,5.47
2018-04-23T07:46:59.468Z,6.27
2018-04-23T07:49:26.981Z,5.80
2018-04-23T07:51:54.481Z,5.53
2018-04-23T07:54:21.996Z,5.70
2018-04-23T07:56:49.495Z,5.63
2018-04-23T07:59:17.010Z,6.30
2018-04-23T08:01:44.506Z,6.60
2018-04-23T08:04:12.074Z,6.73
2018-04-23T08:06:39.571Z,6.30
2018-04-23T08:09:07.856Z,6.93
2018-04-23T08:11:35.355Z,6.37
2018-04-23T08:14:02.871Z,6.13
2018-04-23T08:16:30.365Z,5.67
2018-04-23T08:18:57.874Z,5.30
2018-04-23T08:21:25.375Z,4.93
2018-04-23T08:23:52.886Z,3.17
2018-04-23T08:26:20.393Z,4.27
2018-04-23T08:28:47.910Z,3.60
2018-04-23T08:31:16.165Z,3.40
2018-04-23T08:33:43.693Z,4.30
2018-04-23T08:36:11.963Z,4.13
2018-04-23T08:38:39.483Z,4.33
2018-04-23T08:41:07.768Z,3.60
2018-04-23T08:43:35.287Z,4.23
2018-04-23T08:46:02.806Z,3.60
2018-04-23T08:48:30.331Z,4.20
2018-04-23T08:50:57.850Z,4.37
2018-04-23T08:53:25.392Z,4.50
2018-04-23T08:55:52.908Z,4.73
2018-04-23T08:58:20.426Z,3.50
2018-04-23T09:00:47.922Z,4.00
2018-04-23T09:03:15.443Z,3.80
2018-04-23T09:05:42.970Z,3.30
2018-04-23T09:08:11.254Z,4.03
2018-04-23T09:10:38.764Z,3.20
2018-04-23T09:13:06.347Z,3.87
2018-04-23T09:15:33.862Z,2.90
2018-04-23T09:18:01.387Z,2.97
2018-04-23T09:20:29.654Z,3.43
2018-04-23T09:22:57.929Z,2.93
2018-04-23T09:25:26.182Z,3.20
2018-04-23T09:27:53.689Z,2.70
2018-04-23T09:30:21.186Z,2.70
2018-04-23T09:32:48.714Z,3.37
2018-04-23T09:35:16.219Z,2.67
2018-04-23T09:37:44.041Z,3.33
2018-04-23T09:40:11.529Z,2.73
2018-04-23T09:42:39.038Z,3.77
2018-04-23T09:45:06.540Z,3.00
2018-04-23T09:47:34.822Z,3.37
2018-04-23T09:50:02.357Z,3.03
2018-04-23T09:52:29.886Z,3.70
2018-04-23T09:54:58.167Z,3.10
2018-04-23T09:57:26.445Z,3.20
2018-04-23T09:59:53.944Z,3.57
2018-04-23T10:02:21.491Z,4.20
2018-04-23T10:04:48.991Z,3.93
2018-04-23T10:07:16.491Z,3.60
2018-04-23T10:09:44.006Z,3.47
2018-04-23T10:12:12.324Z,3.87
2018-04-23T10:14:39.813Z,4.30
2018-04-23T10:17:07.324Z,4.10
2018-04-23T10:19:34.852Z,3.87
2018-04-23T10:22:02.360Z,4.20
2018-04-23T10:24:30.687Z,4.87
2018-04-23T10:26:58.185Z,3.97
2018-04-23T10:29:25.742Z,4.70
2018-04-23T10:31:53.224Z,5.30
2018-04-23T10:34:21.504Z,4.20
2018-04-23T10:36:49.013Z,4.40
2018-04-23T10:39:16.521Z,4.20
2018-04-23T10:41:44.798Z,4.70
2018-04-23T10:44:13.073Z,4.50
2018-04-23T10:46:41.334Z,4.57
2018-04-23T10:49:09.618Z,4.97
2018-04-23T10:51:37.973Z,4.93
2018-04-23T10:54:05.457Z,4.90
2018-04-23T10:56:33.715Z,4.60
2018-04-23T10:59:01.227Z,5.50
2018-04-23T11:01:28.717Z,4.80
2018-04-23T11:03:56.234Z,4.73
2018-04-23T11:06:23.725Z,4.20
2018-04-23T11:08:51.239Z,5.03
2018-04-23T11:11:19.510Z,5.20
2018-04-23T11:13:47.083Z,5.07
2018-04-23T11:16:14.585Z,4.93
2018-04-23T11:18:42.107Z,5.00
2018-04-23T11:21:09.606Z,6.10
2018-04-23T11:23:37.126Z,6.47
2018-04-23T11:26:04.628Z,6.00
2018-04-23T11:28:32.158Z,6.23
2018-04-23T11:30:59.657Z,5.90
2018-04-23T11:33:27.173Z,6.03
2018-04-23T11:35:54.677Z,5.80
2018-04-23T11:38:22.196Z,6.40
2018-04-23T11:40:49.699Z,6.60
2018-04-23T11:43:17.435Z,5.73
2018-04-23T11:45:44.934Z,5.53
2018-04-23T11:48:12.450Z,5.60
2018-04-23T11:50:39.949Z,5.93
2018-04-23T11:53:07.476Z,5.97
2018-04-23T11:55:34.981Z,6.07
2018-04-23T11:58:02.532Z,6.77
2018-04-23T12:00:30.841Z,6.80
2018-04-23T12:02:59.068Z,6.93
2018-04-23T12:05:26.562Z,7.33
2018-04-23T12:07:54.086Z,6.80
2018-04-23T12:10:25.294Z,6.47
2018-04-23T12:12:52.832Z,6.57
2018-04-23T12:15:20.321Z,7.30
2018-04-23T12:17:47.851Z,7.37
2018-04-23T12:20:15.396Z,6.00
2018-04-23T12:22:42.941Z,6.90
2018-04-23T12:25:10.454Z,6.70
2018-04-23T12:27:37.970Z,8.47
2018-04-23T12:30:06.283Z,7.80
2018-04-23T12:32:33.825Z,6.90
2018-04-23T12:35:01.335Z,6.53
2018-04-23T12:37:28.858Z,7.33
2018-04-23T12:39:56.361Z,7.97
2018-04-23T12:42:23.898Z,8.57
2018-04-23T12:44:51.402Z,7.40
2018-04-23T12:47:18.918Z,7.17
2018-04-23T12:49:46.425Z,7.17
2018-04-23T12:52:14.711Z,7.60
2018-04-23T12:54:43.041Z,7.13
2018-04-23T12:57:10.559Z,7.50
2018-04-23T12:59:38.070Z,7.13
2018-04-23T13:02:05.884Z,7.57
2018-04-23T13:04:34.153Z,7.23
2018-04-23T13:07:02.510Z,7.30
2018-04-23T13:09:31.798Z,7.50
2018-04-23T13:11:59.366Z,7.67
2018-04-23T13:14:26.885Z,6.30
2018-04-23T13:16:54.430Z,6.90
2018-04-23T13:19:22.880Z,6.10
2018-04-23T13:21:50.406Z,7.33
2018-04-23T13:24:17.902Z,7.00
2018-04-23T13:26:45.424Z,6.93
2018-04-23T13:29:12.923Z,6.33
2018-04-23T13:31:41.224Z,7.07
2018-04-23T13:34:08.716Z,6.90
2018-04-23T13:36:36.530Z,7.33
2018-04-23T13:39:06.485Z,5.50
2018-04-23T13:41:34.015Z,7.30
2018-04-23T13:44:02.278Z,6.53
2018-04-23T13:46:29.806Z,6.50
2018-04-23T13:48:57.310Z,6.23
2018-04-23T13:51:25.610Z,5.80
2018-04-23T13:53:53.130Z,6.67
2018-04-23T13:56:20.646Z,6.23
2018-04-23T13:58:48.202Z,5.80
2018-04-23T14:01:15.720Z,6.03
2018-04-23T14:03:43.974Z,6.87
2018-04-23T14:06:11.506Z,6.10
2018-04-23T14:08:39.018Z,6.20
2018-04-23T14:11:07.310Z,6.30
2018-04-23T14:13:34.811Z,5.77
2018-04-23T14:16:02.343Z,5.73
2018-04-23T14:18:29.835Z,6.40
2018-04-23T14:20:57.366Z,6.60
2018-04-23T14:23:24.877Z,6.70
2018-04-23T14:25:52.394Z,7.70
2018-04-23T14:28:19.886Z,6.90
2018-04-23T14:30:47.403Z,7.43
2018-04-23T14:33:14.897Z,6.70
2018-04-23T14:35:42.609Z,6.70
2018-04-23T14:38:10.177Z,6.80
2018-04-23T14:40:37.688Z,6.30
2018-04-23T14:43:05.187Z,6.60
2018-04-23T14:45:32.701Z,6.67
2018-04-23T14:48:00.205Z,5.40
2018-04-23T14:50:27.718Z,6.43
2018-04-23T14:52:55.202Z,6.37
2018-04-23T14:55:23.486Z,6.67
2018-04-23T14:57:51.746Z,5.93
2018-04-23T15:00:19.258Z,6.33
2018-04-23T15:02:46.763Z,7.00
2018-04-23T15:05:14.281Z,6.23
2018-04-23T15:07:41.786Z,6.27
2018-04-23T15:10:09.315Z,6.43
2018-04-23T15:12:36.815Z,6.97
2018-04-23T15:15:05.091Z,7.20
2018-04-23T15:17:33.359Z,6.03
2018-04-23T15:20:00.886Z,6.40
2018-04-23T15:22:28.374Z,6.23
2018-04-23T15:24:55.887Z,7.53
2018-04-23T15:27:23.374Z,6.37
2018-04-23T15:29:50.882Z,6.10
2018-04-23T15:32:18.374Z,7.20
2018-04-23T15:34:46.587Z,6.10
2018-04-23T15:37:14.815Z,5.77
2018-04-23T15:39:42.334Z,6.43
2018-04-23T15:42:10.643Z,6.00
2018-04-23T15:44:38.198Z,6.33
2018-04-23T15:47:05.702Z,6.20
2018-04-23T15:49:33.222Z,5.30
2018-04-23T15:52:01.478Z,5.90
2018-04-23T15:54:29.774Z,6.20
2018-04-23T15:56:57.313Z,5.73
2018-04-23T15:59:25.602Z,6.30
2018-04-23T16:01:53.110Z,5.57
2018-04-23T16:04:20.629Z,6.00
2018-04-23T16:06:48.141Z,5.70
2018-04-23T16:09:15.673Z,5.47
2018-04-23T16:11:44.101Z,5.90
2018-04-23T16:14:12.394Z,5.90
2018-04-23T16:16:39.914Z,5.60
2018-04-23T16:19:07.466Z,5.63
2018-04-23T16:21:34.969Z,4.53
2018-04-23T16:24:02.501Z,5.30
2018-04-23T16:26:30.003Z,5.27
2018-04-23T16:28:58.095Z,5.37
2018-04-23T16:31:25.602Z,5.87
2018-04-23T16:33:53.907Z,4.73
2018-04-23T16:36:21.425Z,4.30
2018-04-23T16:38:48.956Z,4.67
2018-04-23T16:41:16.462Z,4.70
2018-04-23T16:43:44.757Z,5.70
2018-04-23T16:46:29.178Z,5.20
2018-04-23T16:48:56.691Z,5.33
2018-04-23T16:51:24.185Z,4.90
2018-04-23T16:53:51.714Z,4.47
2018-04-23T16:56:19.223Z,4.77
2018-04-23T16:58:46.749Z,4.77
2018-04-23T17:01:14.246Z,5.70
2018-04-23T17:03:42.542Z,4.80
2018-04-23T17:06:10.805Z,5.47
2018-04-23T17:08:39.097Z,4.47
2018-04-23T17:11:07.368Z,5.40
2018-04-23T17:13:35.656Z,5.67
2018-04-23T17:16:03.925Z,5.20
2018-04-23T17:18:32.235Z,6.00
2018-04-23T17:20:59.762Z,5.50
2018-04-23T17:23:28.054Z,6.73
2018-04-23T17:25:55.562Z,5.20
2018-04-23T17:28:23.098Z,6.30
2018-04-23T17:30:50.606Z,5.87
2018-04-23T17:33:18.902Z,7.10
2018-04-23T17:35:46.422Z,6.23
2018-04-23T17:38:13.951Z,5.00
2018-04-23T17:40:41.452Z,5.47
2018-04-23T17:43:08.983Z,5.37
2018-04-23T17:45:36.494Z,6.10
2018-04-23T17:48:04.865Z,6.40
2018-04-23T17:50:33.172Z,5.10
2018-04-23T17:53:02.753Z,5.30
2018-04-23T17:55:31.055Z,5.30
2018-04-23T17:57:58.580Z,5.87
2018-04-23T18:00:26.103Z,5.57
2018-04-23T18:02:53.611Z,6.40
2018-04-23T18:05:21.907Z,5.87
2018-04-23T18:07:49.565Z,4.93
2018-04-23T18:10:17.839Z,5.40
2018-04-23T18:12:46.127Z,5.90
2018-04-23T18:15:13.622Z,5.83
2018-04-23T18:17:41.145Z,6.90
2018-04-23T18:20:09.425Z,6.50
2018-04-23T18:22:36.937Z,6.07
2018-04-23T18:25:04.466Z,6.33
2018-04-23T18:27:31.986Z,6.10
2018-04-23T18:29:59.729Z,6.30
2018-04-23T18:32:27.245Z,5.63
2018-04-23T18:34:54.752Z,5.13
2018-04-23T18:37:22.390Z,5.83
2018-04-23T18:39:49.910Z,5.30
2018-04-23T18:42:17.437Z,5.43
2018-04-23T18:44:45.149Z,6.37
2018-04-23T18:47:12.649Z,6.20
2018-04-23T18:49:40.178Z,6.10
2018-04-23T18:52:07.734Z,6.37
2018-04-23T18:54:35.257Z,6.17
2018-04-23T18:57:03.529Z,6.40
2018-04-23T18:59:31.815Z,6.20
2018-04-23T19:02:00.191Z,6.47
2018-04-23T19:04:28.632Z,5.20
2018-04-23T19:06:56.902Z,6.10
2018-04-23T19:09:25.344Z,5.70
2018-04-23T19:11:53.366Z,6.27
2018-04-23T19:14:21.705Z,5.60
2018-04-23T19:16:50.598Z,6.20
2018-04-23T19:19:19.258Z,5.70
2018-04-23T19:21:47.145Z,6.90
2018-04-23T19:24:15.124Z,6.17
2018-04-23T19:26:43.598Z,7.37
2018-04-23T19:29:12.235Z,6.50
2018-04-23T19:31:40.721Z,5.57
2018-04-23T19:34:08.480Z,5.47
2018-04-23T19:36:36.264Z,5.27
2018-04-23T19:39:04.023Z,6.27
2018-04-23T19:41:32.326Z,6.23
2018-04-23T19:43:59.893Z,5.40
2018-04-23T19:46:27.432Z,6.60
2018-04-23T19:48:54.975Z,6.73
2018-04-23T19:51:22.501Z,7.10
2018-04-23T19:53:50.666Z,6.63
2018-04-23T19:56:18.409Z,6.30
2018-04-23T19:58:47.325Z,6.13
2018-04-23T20:01:16.300Z,6.10
2018-04-23T20:03:44.064Z,6.30
2018-04-23T20:06:11.797Z,6.93
2018-04-23T20:08:42.221Z,6.20
2018-04-23T20:11:11.028Z,6.73
2018-04-23T20:13:39.703Z,6.27
2018-04-23T20:16:07.609Z,6.13
2018-04-23T20:18:36.217Z,6.17
2018-04-23T20:21:03.919Z,6.00
2018-04-23T20:23:32.468Z,7.10
2018-04-23T20:26:00.250Z,5.67
2018-04-23T20:28:28.708Z,6.30
2018-04-23T20:30:57.267Z,6.10
2018-04-23T20:33:24.964Z,5.93
2018-04-23T20:36:14.116Z,5.40
2018-04-23T20:38:44.902Z,5.73
2018-04-23T20:41:14.573Z,5.97
2018-04-23T20:43:42.150Z,5.77
2018-04-23T20:46:09.926Z,5.73
2018-04-23T20:48:39.069Z,4.93
2018-04-23T20:51:06.917Z,6.10
2018-04-23T20:53:34.740Z,5.40
2018-04-23T20:56:07.887Z,6.80
2018-04-23T20:58:36.548Z,5.87
2018-04-23T21:01:04.568Z,5.47
2018-04-23T21:03:33.204Z,6.50
2018-04-23T21:06:01.107Z,5.20
2018-04-23T21:08:29.523Z,6.20
2018-04-23T21:10:58.264Z,5.90
2018-04-23T21:13:26.956Z,6.80
2018-04-23T21:15:55.675Z,6.73
2018-04-23T21:18:23.556Z,5.27
2018-04-23T21:20:52.673Z,5.53
2018-04-23T21:23:21.376Z,6.00
2018-04-23T21:25:49.160Z,6.07
2018-04-23T21:28:17.660Z,5.80
2018-04-23T21:30:45.360Z,5.50
2018-04-23T21:33:13.190Z,5.63
2018-04-23T21:35:41.020Z,5.70
2018-04-23T21:38:08.822Z,6.37
2018-04-23T21:40:36.654Z,5.80
2018-04-23T21:43:05.116Z,6.43
2018-04-23T21:45:33.100Z,6.00
2018-04-23T21:48:01.526Z,5.27
2018-04-23T21:50:30.467Z,5.60
2018-04-23T21:52:58.163Z,5.90
2018-04-23T21:55:26.668Z,5.80
2018-04-23T21:57:54.330Z,6.33
2018-04-23T22:00:21.867Z,5.50
2018-04-23T22:02:50.256Z,5.70
2018-04-23T22:05:17.872Z,6.23
2018-04-23T22:07:45.428Z,5.60
2018-04-23T22:10:12.971Z,6.13
2018-04-23T22:12:40.478Z,5.53
2018-04-23T22:15:08.780Z,6.10
2018-04-23T22:17:36.305Z,5.80
2018-04-23T22:20:03.896Z,5.97
2018-04-23T22:22:31.399Z,5.53
2018-04-23T22:24:58.913Z,5.77
2018-04-23T22:27:27.216Z,5.93
2018-04-23T22:29:54.745Z,6.00
2018-04-23T22:32:23.047Z,6.23
2018-04-23T22:34:50.723Z,6.27
2018-04-23T22:37:19.058Z,5.93
2018-04-23T22:39:47.347Z,6.00
2018-04-23T22:42:15.626Z,5.73
2018-04-23T22:44:43.913Z,6.00
2018-04-23T22:47:11.448Z,6.30
2018-04-23T22:49:38.962Z,6.03
2018-04-23T22:52:06.465Z,6.30
2018-04-23T22:54:33.978Z,5.83
2018-04-23T22:57:01.477Z,6.60
2018-04-23T22:59:28.970Z,6.13
2018-04-23T23:01:56.486Z,7.23
2018-04-23T23:04:23.989Z,6.40
2018-04-23T23:06:51.489Z,6.43
2018-04-23T23:09:18.996Z,6.30
2018-04-23T23:11:47.263Z,6.60
2018-04-23T23:14:15.554Z,6.57
2018-04-23T23:16:44.833Z,6.20
2018-04-23T23:19:13.113Z,6.20
2018-04-23T23:21:41.419Z,7.17
2018-04-23T23:24:08.972Z,7.77
2018-04-23T23:26:36.502Z,6.50
2018-04-23T23:29:03.986Z,6.50
2018-04-23T23:31:32.250Z,6.13
2018-04-23T23:33:59.794Z,6.77
2018-04-23T23:36:27.293Z,6.70
2018-04-23T23:38:54.809Z,7.33
2018-04-23T23:41:22.337Z,7.40
2018-04-23T23:43:49.833Z,6.07
2018-04-23T23:46:17.386Z,6.57
2018-04-23T23:48:45.697Z,6.80
2018-04-23T23:51:13.194Z,6.10
2018-04-23T23:53:40.710Z,6.47
2018-04-23T23:56:08.965Z,7.00
2018-04-23T23:58:36.463Z,7.47
